createdAt,value
2023-05-09T00:00:25.481Z,26.25
2023-05-09T00:02:54.237Z,28.88
2023-05-09T00:05:22.555Z,30.15
2023-05-09T00:07:50.639Z,30.75
2023-05-09T00:10:20.035Z,29.00
2023-05-09T00:12:49.517Z,29.10
2023-05-09T00:15:17.851Z,27.73
2023-05-09T00:17:46.501Z,26.45
2023-05-09T00:20:14.789Z,30.15
2023-05-09T00:22:44.200Z,25.08
2023-05-09T00:25:13.289Z,29.02
2023-05-09T00:27:42.856Z,27.90
2023-05-09T00:30:11.186Z,24.23
2023-05-09T00:32:40.463Z,7.20
2023-05-09T00:35:10.499Z,21.52
2023-05-09T00:37:38.892Z,21.63
2023-05-09T00:40:09.662Z,20.80
2023-05-09T00:42:38.290Z,24.80
2023-05-09T00:45:09.227Z,22.35
2023-05-09T00:47:37.305Z,19.35
2023-05-09T00:50:06.420Z,22.70
2023-05-09T00:52:35.079Z,25.60
2023-05-09T00:55:04.521Z,24.83
2023-05-09T00:57:32.541Z,27.42
2023-05-09T01:00:01.451Z,22.63
2023-05-09T01:02:31.596Z,24.73
2023-05-09T01:04:59.908Z,21.42
2023-05-09T01:07:36.568Z,23.75
2023-05-09T01:10:11.172Z,22.15
2023-05-09T01:12:48.672Z,21.20
2023-05-09T01:15:24.689Z,24.08
2023-05-09T01:18:00.712Z,19.60
2023-05-09T01:20:34.959Z,18.48
2023-05-09T01:23:15.864Z,22.17
2023-05-09T01:25:56.134Z,19.75
2023-05-09T01:28:45.737Z,20.92
2023-05-09T01:31:18.644Z,21.52
2023-05-09T01:33:52.971Z,18.45
2023-05-09T01:36:22.741Z,16.15
2023-05-09T01:38:53.945Z,24.85
2023-05-09T01:41:44.266Z,18.42
2023-05-09T01:44:14.543Z,22.15
2023-05-09T01:46:45.919Z,16.88
2023-05-09T01:49:15.633Z,15.73
2023-05-09T01:51:45.550Z,16.50
2023-05-09T01:54:17.639Z,16.85
2023-05-09T01:56:48.360Z,15.13
2023-05-09T01:59:17.088Z,16.63
2023-05-09T02:01:49.500Z,15.15
2023-05-09T02:04:21.025Z,16.30
2023-05-09T02:06:52.321Z,15.18
2023-05-09T02:09:21.616Z,12.82
2023-05-09T02:11:54.931Z,15.75
2023-05-09T02:14:24.229Z,15.90
2023-05-09T02:16:55.191Z,17.52
2023-05-09T02:19:23.212Z,17.67
2023-05-09T02:21:51.318Z,18.73
2023-05-09T02:24:19.416Z,16.50
2023-05-09T02:26:47.629Z,14.57
2023-05-09T02:29:18.298Z,17.60
2023-05-09T02:31:50.533Z,15.60
2023-05-09T02:34:20.834Z,18.33
2023-05-09T02:36:48.864Z,17.98
2023-05-09T02:39:17.239Z,18.42
2023-05-09T02:41:49.696Z,17.95
2023-05-09T02:44:21.466Z,17.70
2023-05-09T02:46:49.510Z,16.30
2023-05-09T02:49:40.510Z,26.15
2023-05-09T02:52:09.576Z,16.27
2023-05-09T02:54:37.920Z,18.42
2023-05-09T02:57:06.159Z,20.77
2023-05-09T02:59:37.357Z,20.15
2023-05-09T03:02:05.393Z,20.30
2023-05-09T03:04:33.760Z,18.52
2023-05-09T03:07:03.597Z,15.55
2023-05-09T03:09:32.687Z,17.00
2023-05-09T03:12:00.694Z,15.35
2023-05-09T03:14:29.355Z,17.30
2023-05-09T03:16:58.357Z,17.52
2023-05-09T03:19:46.889Z,17.58
2023-05-09T03:22:17.051Z,17.50
2023-05-09T03:25:06.454Z,17.10
2023-05-09T03:27:34.782Z,17.25
2023-05-09T03:30:03.151Z,17.55
2023-05-09T03:32:31.953Z,18.70
2023-05-09T03:35:00.661Z,15.07
2023-05-09T03:37:32.286Z,17.60
2023-05-09T03:40:01.605Z,19.33
2023-05-09T03:42:29.994Z,18.20
2023-05-09T03:44:58.009Z,17.10
2023-05-09T03:47:27.665Z,17.50
2023-05-09T03:50:15.828Z,18.92
2023-05-09T03:52:45.377Z,19.65
2023-05-09T03:55:13.627Z,18.08
2023-05-09T03:57:42.251Z,16.90
2023-05-09T04:00:11.126Z,19.83
2023-05-09T04:02:40.592Z,17.13
2023-05-09T04:05:09.902Z,17.02
2023-05-09T04:07:38.242Z,14.85
2023-05-09T04:10:09.263Z,18.50
2023-05-09T04:12:39.487Z,19.17
2023-05-09T04:15:09.264Z,20.27
2023-05-09T04:17:37.444Z,19.13
2023-05-09T04:20:08.004Z,18.98
2023-05-09T04:22:36.264Z,18.05
2023-05-09T04:25:05.081Z,18.02
2023-05-09T04:27:54.949Z,17.38
2023-05-09T04:30:43.228Z,20.73
2023-05-09T04:33:31.168Z,18.98
2023-05-09T04:35:59.759Z,19.65
2023-05-09T04:38:28.654Z,20.33
2023-05-09T04:40:57.050Z,21.20
2023-05-09T04:43:28.247Z,22.15
2023-05-09T04:45:56.601Z,16.40
2023-05-09T04:48:26.091Z,17.13
2023-05-09T04:50:54.122Z,19.25
2023-05-09T04:53:22.784Z,18.30
2023-05-09T04:55:51.934Z,21.63
2023-05-09T04:58:20.034Z,17.17
2023-05-09T05:00:50.148Z,19.73
2023-05-09T05:03:18.202Z,19.00
2023-05-09T05:05:46.512Z,18.50
2023-05-09T05:08:14.651Z,23.90
2023-05-09T05:10:42.680Z,20.13
2023-05-09T05:13:10.697Z,19.58
2023-05-09T05:15:38.676Z,19.27
2023-05-09T05:18:08.202Z,18.38
2023-05-09T05:20:36.225Z,19.35
2023-05-09T05:23:04.225Z,22.00
2023-05-09T05:25:32.299Z,18.55
2023-05-09T05:28:00.328Z,19.40
2023-05-09T05:30:28.311Z,19.33
2023-05-09T05:32:56.305Z,17.85
2023-05-09T05:35:27.001Z,20.55
2023-05-09T05:37:55.017Z,17.38
2023-05-09T05:40:22.986Z,15.40
2023-05-09T05:42:51.124Z,17.95
2023-05-09T05:45:19.222Z,22.13
2023-05-09T05:47:47.212Z,18.52
2023-05-09T05:50:15.897Z,18.15
2023-05-09T05:52:46.206Z,22.15
2023-05-09T05:55:14.609Z,16.45
2023-05-09T05:57:42.828Z,16.17
2023-05-09T06:00:11.964Z,20.33
2023-05-09T06:02:41.206Z,13.23
2023-05-09T06:05:10.293Z,15.02
2023-05-09T06:07:38.319Z,15.32
2023-05-09T06:10:09.196Z,19.52
2023-05-09T06:12:39.335Z,15.90
2023-05-09T06:15:08.673Z,15.27
2023-05-09T06:17:37.083Z,13.80
2023-05-09T06:20:05.819Z,14.18
2023-05-09T06:22:33.783Z,17.63
2023-05-09T06:25:01.784Z,14.20
2023-05-09T06:27:31.230Z,12.60
2023-05-09T06:29:59.752Z,14.77
2023-05-09T06:32:28.268Z,15.20
2023-05-09T06:34:56.237Z,15.30
2023-05-09T06:37:24.282Z,12.35
2023-05-09T06:39:52.222Z,13.15
2023-05-09T06:42:20.324Z,15.13
2023-05-09T06:44:49.871Z,13.07
2023-05-09T06:47:17.859Z,10.85
2023-05-09T06:49:45.831Z,11.27
2023-05-09T06:52:15.742Z,14.23
2023-05-09T06:54:43.797Z,12.57
2023-05-09T06:57:11.980Z,13.13
2023-05-09T06:59:40.216Z,9.75
2023-05-09T07:02:09.579Z,9.77
2023-05-09T07:04:37.591Z,11.80
2023-05-09T07:07:05.998Z,8.27
2023-05-09T07:09:34.006Z,7.22
2023-05-09T07:12:02.756Z,8.82
2023-05-09T07:14:30.819Z,8.80
2023-05-09T07:17:13.643Z,8.95
2023-05-09T07:19:48.549Z,6.90
2023-05-09T07:22:16.543Z,10.10
2023-05-09T07:24:46.331Z,6.88
2023-05-09T07:27:14.448Z,8.50
2023-05-09T07:29:42.619Z,7.65
2023-05-09T07:32:11.890Z,7.65
2023-05-09T07:34:40.027Z,7.32
2023-05-09T07:37:09.401Z,11.50
2023-05-09T07:39:38.582Z,8.63
2023-05-09T07:42:06.557Z,6.85
2023-05-09T07:44:34.476Z,6.60
2023-05-09T07:47:02.640Z,10.07
2023-05-09T07:49:30.655Z,7.70
2023-05-09T07:51:58.729Z,8.23
2023-05-09T07:54:28.285Z,10.05
2023-05-09T07:56:56.183Z,9.15
2023-05-09T07:59:24.116Z,10.68
2023-05-09T08:01:52.079Z,8.38
2023-05-09T08:04:20.069Z,10.45
2023-05-09T08:06:48.909Z,9.85
2023-05-09T08:09:17.025Z,10.75
2023-05-09T08:11:46.432Z,11.90
2023-05-09T08:14:15.632Z,11.25
2023-05-09T08:16:44.315Z,11.70
2023-05-09T08:19:12.210Z,10.25
2023-05-09T08:21:40.251Z,10.68
2023-05-09T08:24:09.830Z,11.63
2023-05-09T08:26:37.867Z,13.60
2023-05-09T08:29:07.358Z,11.70
2023-05-09T08:31:35.498Z,14.55
2023-05-09T08:34:03.457Z,11.68
2023-05-09T08:36:32.491Z,13.15
2023-05-09T08:39:00.619Z,12.02
2023-05-09T08:41:28.942Z,9.52
2023-05-09T08:43:57.371Z,10.88
2023-05-09T08:46:32.330Z,12.20
2023-05-09T08:49:01.534Z,11.70
2023-05-09T08:51:32.223Z,9.95
2023-05-09T08:54:00.870Z,11.52
2023-05-09T08:56:29.773Z,12.38
2023-05-09T08:58:58.174Z,11.35
2023-05-09T09:01:28.771Z,10.77
2023-05-09T09:03:57.614Z,11.98
2023-05-09T09:06:26.250Z,10.57
2023-05-09T09:08:57.042Z,10.85
2023-05-09T09:11:25.187Z,16.67
2023-05-09T09:13:54.806Z,12.10
2023-05-09T09:16:25.048Z,12.07
2023-05-09T09:18:58.578Z,10.23
2023-05-09T09:21:27.434Z,11.45
2023-05-09T09:23:57.036Z,10.50
2023-05-09T09:26:29.213Z,9.70
2023-05-09T09:28:58.024Z,13.98
2023-05-09T09:31:27.609Z,9.23
2023-05-09T09:34:01.987Z,9.50
2023-05-09T09:36:32.335Z,9.80
2023-05-09T09:39:01.704Z,13.35
2023-05-09T09:41:32.697Z,9.80
2023-05-09T09:44:00.750Z,10.93
2023-05-09T09:46:28.916Z,9.55
2023-05-09T09:48:57.915Z,10.10
2023-05-09T09:51:30.243Z,12.27
2023-05-09T09:53:58.220Z,13.20
2023-05-09T09:56:40.401Z,8.25
2023-05-09T09:59:10.741Z,10.70
2023-05-09T10:01:58.104Z,11.07
2023-05-09T10:04:31.641Z,10.25
2023-05-09T10:07:03.446Z,11.75
2023-05-09T10:09:31.879Z,9.68
2023-05-09T10:12:07.184Z,10.95
2023-05-09T10:14:37.619Z,8.65
2023-05-09T10:17:06.881Z,9.88
2023-05-09T10:19:37.197Z,9.50
2023-05-09T10:22:10.112Z,8.70
2023-05-09T10:24:43.154Z,8.57
2023-05-09T10:27:12.876Z,7.85
2023-05-09T10:29:46.098Z,8.40
2023-05-09T10:32:24.504Z,9.60
2023-05-09T10:34:56.039Z,10.40
2023-05-09T10:37:26.709Z,10.77
2023-05-09T10:39:56.111Z,7.80
2023-05-09T10:42:25.268Z,8.48
2023-05-09T10:44:54.672Z,7.03
2023-05-09T10:47:23.306Z,8.38
2023-05-09T10:49:51.514Z,8.88
2023-05-09T10:52:22.355Z,9.32
2023-05-09T10:55:01.940Z,8.15
2023-05-09T10:57:31.279Z,5.78
2023-05-09T11:00:00.463Z,6.20
2023-05-09T11:02:30.891Z,6.13
2023-05-09T11:05:15.350Z,6.07
2023-05-09T11:07:44.267Z,6.13
2023-05-09T11:10:18.635Z,4.57
2023-05-09T11:12:58.146Z,5.28
2023-05-09T11:15:27.860Z,5.15
2023-05-09T11:18:07.732Z,5.90
2023-05-09T11:20:36.926Z,6.95
2023-05-09T11:23:06.898Z,7.28
2023-05-09T11:25:39.660Z,7.45
2023-05-09T11:28:07.944Z,4.82
2023-05-09T11:30:41.896Z,5.93
2023-05-09T11:33:23.876Z,5.82
2023-05-09T11:36:16.679Z,7.20
2023-05-09T11:38:45.052Z,4.88
2023-05-09T11:41:14.884Z,6.65
2023-05-09T11:43:45.804Z,5.50
2023-05-09T11:46:13.952Z,5.25
2023-05-09T11:48:43.019Z,5.43
2023-05-09T11:51:18.942Z,3.72
2023-05-09T11:53:48.061Z,4.53
2023-05-09T11:56:18.338Z,5.20
2023-05-09T11:58:46.827Z,3.90
2023-05-09T12:01:14.981Z,3.90
2023-05-09T12:03:45.109Z,6.45
2023-05-09T12:06:17.431Z,4.85
2023-05-09T12:08:46.402Z,5.22
2023-05-09T12:11:15.577Z,5.00
2023-05-09T12:13:48.729Z,5.25
2023-05-09T12:16:18.276Z,6.25
2023-05-09T12:18:47.789Z,8.15
2023-05-09T12:21:16.313Z,7.78
2023-05-09T12:23:44.285Z,8.48
2023-05-09T12:26:12.573Z,5.35
2023-05-09T12:28:40.918Z,5.03
2023-05-09T12:31:11.700Z,5.05
2023-05-09T12:33:40.251Z,5.18
2023-05-09T12:36:11.194Z,4.30
2023-05-09T12:38:39.686Z,6.07
2023-05-09T12:41:18.782Z,4.05
2023-05-09T12:43:58.363Z,4.70
2023-05-09T12:46:27.842Z,5.10
2023-05-09T12:48:56.435Z,4.75
2023-05-09T12:51:25.022Z,5.13
2023-05-09T12:53:54.030Z,6.38
2023-05-09T12:56:23.645Z,7.25
2023-05-09T12:58:53.068Z,4.50
2023-05-09T13:01:22.149Z,6.83
2023-05-09T13:04:02.417Z,6.27
2023-05-09T13:06:30.799Z,5.47
2023-05-09T13:09:01.547Z,5.10
2023-05-09T13:11:30.671Z,5.65
2023-05-09T13:13:59.544Z,5.22
2023-05-09T13:16:27.952Z,4.43
2023-05-09T13:18:58.498Z,5.60
2023-05-09T13:21:26.586Z,5.65
2023-05-09T13:23:54.791Z,4.72
2023-05-09T13:26:22.842Z,5.30
2023-05-09T13:28:51.324Z,4.80
2023-05-09T13:31:20.344Z,5.20
2023-05-09T13:33:50.004Z,5.15
2023-05-09T13:36:21.236Z,5.10
2023-05-09T13:38:49.282Z,5.35
2023-05-09T13:41:20.756Z,5.28
2023-05-09T13:43:49.142Z,5.22
2023-05-09T13:46:17.207Z,5.70
2023-05-09T13:48:45.405Z,5.63
2023-05-09T13:51:13.969Z,5.25
2023-05-09T13:53:43.311Z,5.30
2023-05-09T13:56:11.724Z,5.40
2023-05-09T13:58:39.754Z,5.80
2023-05-09T14:01:07.953Z,5.22
2023-05-09T14:03:36.331Z,5.32
2023-05-09T14:06:04.961Z,5.95
2023-05-09T14:08:33.147Z,4.90
2023-05-09T14:11:04.138Z,5.13
2023-05-09T14:13:32.675Z,6.15
2023-05-09T14:16:00.856Z,4.93
2023-05-09T14:18:28.857Z,9.90
2023-05-09T14:20:57.368Z,6.65
2023-05-09T14:23:25.411Z,5.20
2023-05-09T14:25:53.589Z,5.53
2023-05-09T14:28:23.263Z,6.10
2023-05-09T14:30:51.320Z,5.60
2023-05-09T14:33:19.516Z,5.72
2023-05-09T14:35:47.528Z,6.63
2023-05-09T14:38:15.511Z,8.30
2023-05-09T14:40:43.575Z,7.57
2023-05-09T14:43:11.656Z,5.90
2023-05-09T14:45:41.012Z,5.57
2023-05-09T14:48:09.152Z,4.25
2023-05-09T14:50:37.241Z,4.78
2023-05-09T14:53:05.523Z,5.68
2023-05-09T14:55:33.503Z,4.77
2023-05-09T14:58:01.764Z,3.85
2023-05-09T15:00:30.107Z,5.32
2023-05-09T15:02:59.659Z,5.15
2023-05-09T15:05:27.798Z,4.13
2023-05-09T15:07:55.721Z,3.90
2023-05-09T15:10:23.920Z,3.58
2023-05-09T15:12:51.898Z,3.90
2023-05-09T15:15:23.281Z,3.20
2023-05-09T15:17:51.928Z,4.53
2023-05-09T15:20:21.347Z,3.00
2023-05-09T15:22:50.826Z,3.25
2023-05-09T15:25:19.991Z,2.53
2023-05-09T15:27:50.294Z,2.72
2023-05-09T15:30:18.652Z,1.77
2023-05-09T15:32:46.896Z,2.45
2023-05-09T15:35:15.850Z,5.28
2023-05-09T15:37:45.599Z,4.95
2023-05-09T15:40:14.156Z,4.47
2023-05-09T15:42:42.324Z,5.38
2023-05-09T15:45:10.622Z,10.23
2023-05-09T15:47:38.845Z,7.45
2023-05-09T15:50:08.258Z,7.75
2023-05-09T15:52:36.383Z,9.80
2023-05-09T15:55:06.761Z,8.23
2023-05-09T15:57:35.398Z,8.00
2023-05-09T16:00:05.517Z,7.45
2023-05-09T16:02:33.681Z,6.60
2023-05-09T16:05:02.034Z,5.90
2023-05-09T16:07:30.082Z,4.90
2023-05-09T16:09:58.056Z,4.82
2023-05-09T16:12:28.409Z,3.88
2023-05-09T16:14:56.476Z,4.53
2023-05-09T16:17:24.447Z,5.65
2023-05-09T16:19:52.443Z,4.97
2023-05-09T16:22:20.602Z,6.85
2023-05-09T16:24:49.111Z,5.22
2023-05-09T16:27:17.307Z,3.40
2023-05-09T16:29:46.787Z,3.93
2023-05-09T16:32:14.828Z,3.95
2023-05-09T16:34:42.868Z,3.08
2023-05-09T16:37:10.821Z,3.35
2023-05-09T16:39:38.799Z,2.80
2023-05-09T16:42:06.840Z,6.43
2023-05-09T16:44:35.142Z,3.25
2023-05-09T16:47:04.685Z,3.83
2023-05-09T16:49:32.699Z,3.10
2023-05-09T16:52:00.682Z,4.07
2023-05-09T16:54:28.751Z,2.95
2023-05-09T16:56:56.763Z,4.65
2023-05-09T16:59:24.768Z,2.97
2023-05-09T17:01:53.825Z,2.78
2023-05-09T17:04:24.019Z,3.20
2023-05-09T17:06:53.257Z,5.50
2023-05-09T17:09:21.226Z,3.75
2023-05-09T17:11:49.321Z,2.97
2023-05-09T17:14:17.327Z,3.03
2023-05-09T17:16:45.812Z,2.85
2023-05-09T17:19:13.894Z,2.90
2023-05-09T17:21:43.284Z,2.33
2023-05-09T17:24:11.411Z,3.38
2023-05-09T17:26:39.777Z,3.28
2023-05-09T17:29:07.739Z,4.70
2023-05-09T17:31:35.909Z,4.00
2023-05-09T17:34:04.268Z,2.65
2023-05-09T17:36:33.487Z,1.90
2023-05-09T17:39:03.052Z,1.73
2023-05-09T17:41:31.083Z,2.33
2023-05-09T17:43:59.041Z,2.28
2023-05-09T17:46:27.317Z,2.17
2023-05-09T17:48:55.305Z,2.00
2023-05-09T17:51:23.316Z,1.77
2023-05-09T17:53:52.747Z,2.28
2023-05-09T17:56:22.419Z,2.38
2023-05-09T17:58:53.083Z,3.33
2023-05-09T18:01:21.501Z,4.07
2023-05-09T18:03:49.598Z,2.45
2023-05-09T18:06:18.333Z,3.33
2023-05-09T18:08:46.348Z,2.33
2023-05-09T18:11:14.311Z,3.83
2023-05-09T18:14:08.737Z,1.90
2023-05-09T18:16:59.191Z,2.53
2023-05-09T18:19:28.790Z,3.33
2023-05-09T18:21:56.909Z,1.83
2023-05-09T18:24:25.265Z,2.20
2023-05-09T18:26:54.783Z,2.00
2023-05-09T18:29:24.740Z,5.78
2023-05-09T18:31:53.272Z,2.30
2023-05-09T18:34:22.836Z,3.33
2023-05-09T18:36:52.719Z,2.60
2023-05-09T18:39:21.098Z,4.38
2023-05-09T18:41:51.578Z,5.60
2023-05-09T18:44:19.690Z,6.28
2023-05-09T18:46:51.860Z,7.43
2023-05-09T18:49:20.572Z,8.98
2023-05-09T18:51:48.876Z,8.75
2023-05-09T18:54:38.448Z,9.05
2023-05-09T18:57:10.779Z,11.80
2023-05-09T18:59:39.186Z,10.88
2023-05-09T19:02:12.912Z,10.88
2023-05-09T19:05:06.047Z,12.68
2023-05-09T19:07:37.226Z,12.07
2023-05-09T19:10:10.818Z,12.23
2023-05-09T19:12:39.812Z,18.70
2023-05-09T19:15:08.994Z,14.55
2023-05-09T19:17:39.345Z,16.52
2023-05-09T19:20:09.690Z,15.73
2023-05-09T19:22:44.287Z,15.63
2023-05-09T19:25:19.224Z,15.10
2023-05-09T19:27:48.382Z,13.23
2023-05-09T19:30:17.489Z,14.00
2023-05-09T19:32:47.485Z,14.77
2023-05-09T19:35:17.341Z,14.52
2023-05-09T19:37:45.861Z,15.13
2023-05-09T19:40:16.314Z,15.83
2023-05-09T19:42:45.761Z,14.70
2023-05-09T19:45:17.986Z,12.98
2023-05-09T19:47:51.726Z,14.93
2023-05-09T19:50:20.430Z,20.23
2023-05-09T19:52:48.470Z,15.48
2023-05-09T19:55:16.919Z,14.85
2023-05-09T19:58:09.992Z,14.75
2023-05-09T20:00:39.526Z,18.80
2023-05-09T20:03:11.497Z,16.00
2023-05-09T20:05:43.241Z,18.17
2023-05-09T20:08:11.707Z,14.10
2023-05-09T20:10:40.778Z,16.83
2023-05-09T20:13:10.631Z,14.20
2023-05-09T20:15:39.894Z,15.05
2023-05-09T20:18:09.542Z,15.88
2023-05-09T20:20:38.283Z,17.02
2023-05-09T20:23:06.572Z,20.53
2023-05-09T20:25:34.991Z,16.70
2023-05-09T20:28:03.059Z,18.93
2023-05-09T20:30:32.071Z,18.88
2023-05-09T20:33:01.110Z,20.30
2023-05-09T20:35:30.654Z,17.80
2023-05-09T20:38:00.658Z,19.73
2023-05-09T20:40:30.738Z,22.93
2023-05-09T20:43:00.251Z,17.10
2023-05-09T20:45:29.022Z,19.30
2023-05-09T20:48:17.694Z,21.75
2023-05-09T20:50:49.726Z,19.65
2023-05-09T20:53:27.862Z,23.35
2023-05-09T20:56:01.387Z,21.27
2023-05-09T20:58:32.908Z,17.52
2023-05-09T21:01:00.936Z,22.55
2023-05-09T21:03:29.658Z,20.47
2023-05-09T21:05:59.804Z,20.52
2023-05-09T21:08:30.150Z,19.17
2023-05-09T21:10:58.532Z,19.92
2023-05-09T21:13:34.880Z,19.50
2023-05-09T21:16:06.369Z,21.43
2023-05-09T21:18:37.308Z,19.83
2023-05-09T21:21:10.125Z,20.73
2023-05-09T21:23:40.444Z,18.38
2023-05-09T21:26:10.837Z,21.60
2023-05-09T21:28:39.121Z,20.02
2023-05-09T21:31:09.727Z,17.83
2023-05-09T21:33:40.088Z,18.37
2023-05-09T21:36:12.049Z,17.15
2023-05-09T21:38:46.060Z,18.63
2023-05-09T21:41:14.057Z,20.50
2023-05-09T21:43:42.082Z,18.20
2023-05-09T21:46:10.563Z,18.43
2023-05-09T21:48:38.685Z,18.92
2023-05-09T21:51:09.804Z,18.52
2023-05-09T21:53:39.643Z,19.30
2023-05-09T21:56:11.437Z,22.10
2023-05-09T21:58:39.643Z,19.27
2023-05-09T22:01:08.924Z,19.13
2023-05-09T22:03:37.313Z,18.17
2023-05-09T22:06:07.005Z,19.07
2023-05-09T22:08:35.258Z,17.90
2023-05-09T22:11:04.934Z,17.20
2023-05-09T22:13:35.715Z,17.88
2023-05-09T22:16:04.742Z,18.57
2023-05-09T22:18:54.361Z,18.00
2023-05-09T22:21:23.354Z,15.98
2023-05-09T22:23:51.830Z,18.57
2023-05-09T22:26:21.315Z,19.23
2023-05-09T22:29:09.338Z,19.05
2023-05-09T22:31:39.308Z,17.87
2023-05-09T22:34:33.110Z,18.60
2023-05-09T22:37:23.916Z,17.63
2023-05-09T22:39:52.555Z,14.85
2023-05-09T22:42:23.314Z,18.60
2023-05-09T22:44:52.763Z,16.00
2023-05-09T22:47:20.935Z,15.97
2023-05-09T22:49:50.192Z,16.83
2023-05-09T22:52:20.814Z,17.35
2023-05-09T22:54:49.205Z,14.70
2023-05-09T22:57:20.569Z,15.17
2023-05-09T22:59:50.067Z,14.30
2023-05-09T23:02:19.601Z,13.10
2023-05-09T23:04:47.969Z,13.87
2023-05-09T23:07:16.262Z,15.27
2023-05-09T23:09:53.306Z,13.30
2023-05-09T23:12:21.525Z,15.53
2023-05-09T23:14:52.169Z,16.10
2023-05-09T23:17:22.586Z,12.40
2023-05-09T23:19:53.449Z,13.07
2023-05-09T23:22:23.156Z,17.00
2023-05-09T23:24:52.350Z,12.83
2023-05-09T23:27:22.786Z,16.37
2023-05-09T23:29:52.672Z,14.32
2023-05-09T23:32:24.251Z,13.03
2023-05-09T23:34:52.762Z,16.33
2023-05-09T23:37:21.160Z,14.00
2023-05-09T23:39:51.117Z,14.53
2023-05-09T23:42:19.956Z,16.00
2023-05-09T23:45:11.117Z,16.47
2023-05-09T23:47:39.156Z,12.57
2023-05-09T23:50:08.681Z,16.97
2023-05-09T23:52:38.836Z,16.87
2023-05-09T23:55:08.250Z,15.03
2023-05-09T23:57:37.260Z,15.30
